Time;durP1;ratioP1;P1;durP2;ratioP2;P2;SDS_P1;SDS_P2;PMS_P1;PMS_P2;Temp;Humidity;BMP_temperature;BMP_pressure;BME280_temperature;BME280_humidity;BME280_pressure;Samples;Min_cycle;Max_cycle;Signal;HPM_P1;HPM_P2
2021/07/11 00:00:28;;;;;;;14.55;11.15;;;;;;;19.42;71.62;101456.63;5051667;28;20053;-52
2021/07/11 00:02:56;;;;;;;16.05;10.73;;;;;;;19.40;71.69;101450.59;5069509;28;20040;-51
2021/07/11 00:05:25;;;;;;;14.05;10.10;;;;;;;19.41;71.37;101449.47;5072958;28;20047;-51
2021/07/11 00:07:53;;;;;;;13.93;9.70;;;;;;;19.41;71.32;101446.72;5072983;28;20040;-51
2021/07/11 00:10:21;;;;;;;14.63;9.88;;;;;;;19.39;71.26;101457.25;5073133;28;20047;-51
2021/07/11 00:12:49;;;;;;;12.20;9.05;;;;;;;19.37;71.12;101456.75;5054970;28;20454;-51
2021/07/11 00:15:19;;;;;;;16.13;11.43;;;;;;;19.36;71.24;101460.63;5073213;28;20056;-50
2021/07/11 00:17:48;;;;;;;15.02;11.30;;;;;;;19.31;71.39;101456.06;5073244;28;20414;-50
2021/07/11 00:20:16;;;;;;;14.85;10.82;;;;;;;19.33;71.43;101461.25;5072234;28;20597;-50
2021/07/11 00:22:44;;;;;;;15.32;10.95;;;;;;;19.32;71.69;101449.41;5055091;28;20055;-51
2021/07/11 00:25:13;;;;;;;17.00;12.88;;;;;;;19.30;71.55;101446.13;5072936;28;20047;-51
2021/07/11 00:27:42;;;;;;;16.10;12.80;;;;;;;19.26;71.47;101449.81;5072857;28;20044;-53
2021/07/11 00:30:11;;;;;;;19.48;13.82;;;;;;;19.19;71.71;101447.47;5072741;28;20036;-51
2021/07/11 00:32:39;;;;;;;21.95;13.48;;;;;;;19.14;71.90;101442.88;5055103;28;20490;-49
2021/07/11 00:35:08;;;;;;;18.13;13.15;;;;;;;19.13;72.17;101441.25;5072346;28;20119;-50
2021/07/11 00:37:36;;;;;;;17.80;14.40;;;;;;;19.11;72.03;101437.97;5072622;28;20044;-50
2021/07/11 00:40:06;;;;;;;15.98;11.40;;;;;;;19.10;71.97;101424.50;5072301;28;20105;-50
2021/07/11 00:42:33;;;;;;;15.65;12.32;;;;;;;19.12;72.10;101434.13;5054880;28;20127;-50
2021/07/11 00:45:04;;;;;;;16.55;13.65;;;;;;;19.12;72.19;101433.28;5072523;28;20045;-52
2021/07/11 00:47:38;;;;;;;20.17;13.65;;;;;;;19.10;72.29;101432.78;5072294;28;20041;-51
2021/07/11 00:50:09;;;;;;;17.80;13.23;;;;;;;19.05;72.21;101430.97;5072114;28;20098;-52
2021/07/11 00:52:39;;;;;;;16.30;13.23;;;;;;;19.03;72.58;101433.22;5072120;28;20040;-50
2021/07/11 00:55:10;;;;;;;19.73;14.35;;;;;;;19.03;72.44;101427.69;5072502;28;20526;-53
2021/07/11 00:57:39;;;;;;;16.70;13.68;;;;;;;19.03;72.51;101433.22;5054319;28;20491;-53
2021/07/11 01:00:10;;;;;;;20.27;13.38;;;;;;;19.01;72.55;101431.88;5072347;28;20075;-50
2021/07/11 01:03:10;;;;;;;15.93;11.30;;;;;;;19.04;72.48;101443.13;5071991;28;20097;-48
2021/07/11 01:05:42;;;;;;;17.15;13.23;;;;;;;19.06;72.34;101432.56;5038159;28;20049;-51
2021/07/11 01:08:43;;;;;;;17.83;12.70;;;;;;;19.08;72.09;101438.63;5036878;28;20455;-51
2021/07/11 01:11:16;;;;;;;19.63;12.75;;;;;;;19.06;72.24;101440.88;5054939;28;20049;-53
2021/07/11 01:13:44;;;;;;;18.42;14.20;;;;;;;19.05;72.26;101442.00;5071973;28;20446;-50
2021/07/11 01:16:17;;;;;;;17.70;15.10;;;;;;;19.04;72.29;101442.31;5054351;28;20143;-49
2021/07/11 01:18:59;;;;;;;18.38;13.82;;;;;;;19.04;72.33;101440.34;5035281;28;20052;-51
2021/07/11 01:21:30;;;;;;;17.98;14.20;;;;;;;19.02;72.21;101445.38;5067742;28;20111;-52
2021/07/11 01:24:11;;;;;;;16.67;13.40;;;;;;;18.99;72.23;101446.00;5034449;28;20131;-50
2021/07/11 01:26:39;;;;;;;19.85;14.77;;;;;;;18.97;72.65;101442.72;5051775;28;20056;-50
2021/07/11 01:29:07;;;;;;;19.20;15.23;;;;;;;18.95;72.61;101450.50;5054312;28;20044;-50
2021/07/11 01:31:36;;;;;;;20.80;16.05;;;;;;;18.93;72.67;101447.25;5049364;28;20045;-52
2021/07/11 01:34:05;;;;;;;18.75;14.85;;;;;;;18.91;72.63;101439.25;5034077;28;20120;-51
2021/07/11 01:36:33;;;;;;;16.88;14.18;;;;;;;18.95;72.68;101444.97;5032838;28;20064;-52
2021/07/11 01:39:00;;;;;;;19.42;14.77;;;;;;;18.97;72.63;101453.78;5037615;28;20511;-49
2021/07/11 01:41:37;;;;;;;20.00;14.93;;;;;;;19.00;72.33;101458.69;5038688;28;20051;-50
2021/07/11 01:44:08;;;;;;;17.02;13.85;;;;;;;19.02;72.30;101461.13;5053963;28;20067;-52
2021/07/11 01:46:35;;;;;;;20.70;16.08;;;;;;;18.99;72.35;101454.28;5072169;28;20094;-53
2021/07/11 01:49:04;;;;;;;20.13;16.02;;;;;;;18.92;72.78;101445.59;5053581;28;20060;-55
2021/07/11 01:51:32;;;;;;;18.75;15.95;;;;;;;18.89;72.56;101440.69;5054133;28;20155;-55
2021/07/11 01:54:02;;;;;;;19.05;16.50;;;;;;;18.83;72.84;101442.75;5053887;28;20440;-52
2021/07/11 01:56:33;;;;;;;22.25;15.65;;;;;;;18.80;73.01;101446.13;5054203;28;20434;-52
2021/07/11 01:59:04;;;;;;;18.77;15.32;;;;;;;18.79;73.10;101444.50;5037878;28;20047;-55
2021/07/11 02:01:45;;;;;;;21.05;17.17;;;;;;;18.76;72.80;101436.84;5053441;28;20059;-52
2021/07/11 02:04:15;;;;;;;20.70;17.10;;;;;;;18.72;73.28;101433.84;5053264;28;20538;-55
2021/07/11 02:06:45;;;;;;;22.92;17.70;;;;;;;18.71;73.36;101443.25;5054012;28;20051;-56
2021/07/11 02:09:22;;;;;;;21.27;17.35;;;;;;;18.69;73.47;101441.94;5053809;28;20044;-48
2021/07/11 02:11:57;;;;;;;23.60;17.60;;;;;;;18.66;73.65;101442.53;5038329;28;20129;-52
2021/07/11 02:14:39;;;;;;;20.48;16.88;;;;;;;18.62;73.87;101433.25;5053473;28;20050;-48
2021/07/11 02:17:19;;;;;;;21.52;17.02;;;;;;;18.61;73.79;101428.84;5031398;28;20562;-51
2021/07/11 02:20:13;;;;;;;20.75;14.52;;;;;;;18.62;73.87;101434.06;5046403;28;20059;-49
2021/07/11 02:22:46;;;;;;;24.42;17.35;;;;;;;18.64;73.91;101431.81;5035694;28;20041;-48
2021/07/11 02:25:19;;;;;;;19.58;16.95;;;;;;;18.66;73.73;101437.00;5071575;28;20067;-52
2021/07/11 02:27:54;;;;;;;22.60;17.88;;;;;;;18.67;73.79;101439.47;5066418;28;20090;-50
2021/07/11 02:30:28;;;;;;;20.38;16.48;;;;;;;18.69;73.59;101455.72;5071348;28;20045;-51
2021/07/11 02:32:56;;;;;;;20.60;17.08;;;;;;;18.68;73.87;101454.88;5071295;28;20411;-51
2021/07/11 02:35:39;;;;;;;21.77;17.63;;;;;;;18.67;73.55;101457.97;5053762;28;20127;-51
2021/07/11 02:38:12;;;;;;;23.08;16.58;;;;;;;18.64;74.11;101459.41;5053744;28;20039;-52
2021/07/11 02:40:41;;;;;;;23.60;17.58;;;;;;;18.63;74.10;101466.03;5053507;28;20105;-51
2021/07/11 02:43:11;;;;;;;23.65;17.55;;;;;;;18.62;74.21;101458.91;5055095;28;20048;-50
2021/07/11 02:45:43;;;;;;;28.63;19.17;;;;;;;18.61;74.28;101462.75;5056610;28;20052;-49
2021/07/11 02:48:13;;;;;;;22.58;17.33;;;;;;;18.61;74.33;101456.44;5074593;28;20040;-51
2021/07/11 02:50:48;;;;;;;25.88;19.20;;;;;;;18.58;74.55;101452.34;5075082;28;20127;-50
2021/07/11 02:53:21;;;;;;;22.60;17.70;;;;;;;18.53;74.56;101446.94;5056278;28;20063;-50
2021/07/11 02:55:55;;;;;;;25.10;19.13;;;;;;;18.53;74.76;101452.44;5037775;28;20049;-53
2021/07/11 02:58:29;;;;;;;20.60;16.60;;;;;;;18.53;74.73;101456.03;5053662;28;20130;-51
2021/07/11 03:00:59;;;;;;;22.13;18.23;;;;;;;18.55;74.87;101458.47;5039935;28;20087;-51
2021/07/11 03:03:27;;;;;;;23.15;18.98;;;;;;;18.57;74.92;101456.25;5074718;28;20050;-52
2021/07/11 03:06:00;;;;;;;25.05;18.83;;;;;;;18.54;74.78;101454.06;5074566;28;20051;-49
2021/07/11 03:08:28;;;;;;;22.35;18.92;;;;;;;18.52;75.00;101453.59;5056937;28;20086;-50
2021/07/11 03:11:05;;;;;;;27.65;18.80;;;;;;;18.49;75.05;101451.41;5056339;28;20098;-50
2021/07/11 03:13:34;;;;;;;23.02;18.85;;;;;;;18.50;75.11;101455.81;5074354;28;20076;-52
2021/07/11 03:16:04;;;;;;;26.20;19.20;;;;;;;18.51;75.04;101458.25;5056093;28;20048;-53
2021/07/11 03:18:38;;;;;;;20.77;16.48;;;;;;;18.53;75.13;101455.22;5042783;28;20049;-51
2021/07/11 03:21:07;;;;;;;23.02;18.85;;;;;;;18.55;75.15;101452.97;5053075;28;20083;-55
2021/07/11 03:23:40;;;;;;;24.85;19.88;;;;;;;18.56;74.98;101460.09;5056637;28;20127;-54
2021/07/11 03:26:08;;;;;;;24.90;19.85;;;;;;;18.57;75.11;101458.16;5056329;28;20044;-56
2021/07/11 03:28:36;;;;;;;23.08;19.42;;;;;;;18.55;75.13;101458.47;5043995;28;20068;-55
2021/07/11 03:31:08;;;;;;;22.92;18.48;;;;;;;18.56;75.16;101459.28;5055967;28;20140;-52
2021/07/11 03:33:45;;;;;;;29.42;21.02;;;;;;;18.52;75.16;101457.16;5074305;28;20044;-55
2021/07/11 03:36:13;;;;;;;;;;;;;;;18.51;75.04;101463.78;5037488;28;20430;-53
2021/07/11 03:38:55;;;;;;;25.52;21.02;;;;;;;18.48;75.45;101464.41;5073803;28;20367;-54
2021/07/11 03:41:26;;;;;;;28.17;19.83;;;;;;;18.48;75.48;101474.63;5056148;28;20052;-51
2021/07/11 03:43:59;;;;;;;26.15;20.42;;;;;;;18.49;75.47;101470.72;5055969;28;20131;-51
2021/07/11 03:46:32;;;;;;;24.45;19.30;;;;;;;18.48;75.30;101463.59;5073870;28;20120;-54
2021/07/11 03:49:08;;;;;;;27.55;21.67;;;;;;;18.47;75.40;101472.97;5056170;28;20123;-49
2021/07/11 03:51:38;;;;;;;27.00;21.77;;;;;;;18.43;75.71;101466.44;5055987;28;20059;-51
2021/07/11 03:54:08;;;;;;;28.52;22.95;;;;;;;18.40;75.82;101467.03;5055072;28;20430;-50
2021/07/11 03:56:36;;;;;;;28.10;22.58;;;;;;;18.40;75.80;101469.81;5055903;28;20044;-50
2021/07/11 03:59:06;;;;;;;30.67;23.80;;;;;;;18.38;75.88;101470.13;5055510;28;20050;-51
2021/07/11 04:01:35;;;;;;;30.00;22.98;;;;;;;18.36;76.09;101466.84;5073733;28;20075;-51
2021/07/11 04:04:06;;;;;;;28.55;22.83;;;;;;;18.35;76.17;101467.97;5055517;28;20892;-51
2021/07/11 04:06:34;;;;;;;31.73;25.00;;;;;;;18.33;76.67;101477.66;5055806;28;20067;-51
2021/07/11 04:09:03;;;;;;;30.63;24.35;;;;;;;18.31;76.36;101480.75;5073360;28;20048;-50
2021/07/11 04:11:34;;;;;;;30.65;24.23;;;;;;;18.28;76.48;101479.41;5055406;28;20052;-51
2021/07/11 04:14:02;;;;;;;28.30;22.65;;;;;;;18.30;76.67;101473.56;5055167;28;20052;-52
2021/07/11 04:16:32;;;;;;;33.00;24.95;;;;;;;18.29;76.70;101471.94;5073082;28;20075;-56
2021/07/11 04:19:02;;;;;;;32.08;25.10;;;;;;;18.26;76.63;101473.38;5048384;28;20518;-55
2021/07/11 04:21:31;;;;;;;30.30;23.95;;;;;;;18.23;76.64;101468.47;5073401;28;20040;-55
2021/07/11 04:23:59;;;;;;;31.58;25.40;;;;;;;18.23;76.77;101471.22;5077281;28;20037;-56
2021/07/11 04:26:34;;;;;;;33.97;25.98;;;;;;;18.23;76.84;101476.75;5057012;28;20063;-51
2021/07/11 04:29:03;;;;;;;32.15;24.30;;;;;;;18.24;76.97;101470.09;5072912;28;20067;-51
2021/07/11 04:31:30;;;;;;;35.50;25.33;;;;;;;18.25;76.86;101466.22;5055021;28;20049;-50
2021/07/11 04:34:20;;;;;;;28.38;23.63;;;;;;;18.28;76.82;101471.13;5072936;28;20048;-53
2021/07/11 04:36:48;;;;;;;32.47;24.85;;;;;;;18.26;76.91;101473.38;5055140;28;20036;-53
2021/07/11 04:39:16;;;;;;;30.95;25.00;;;;;;;18.28;76.70;101470.31;5072535;28;20101;-54
2021/07/11 04:41:43;;;;;;;29.33;22.45;;;;;;;18.25;76.83;101471.72;5072013;28;20040;-52
2021/07/11 04:44:12;;;;;;;29.20;22.35;;;;;;;18.27;76.72;101474.19;5072571;28;20063;-49
2021/07/11 04:46:39;;;;;;;32.53;23.50;;;;;;;18.25;77.12;101480.00;5072463;28;20132;-51
2021/07/11 04:49:08;;;;;;;30.73;24.73;;;;;;;18.26;77.02;101483.59;5072719;28;20402;-54
2021/07/11 04:51:36;;;;;;;31.60;24.38;;;;;;;18.24;76.99;101480.31;5072746;28;20048;-51
2021/07/11 04:54:05;;;;;;;34.50;24.30;;;;;;;18.23;77.00;101476.75;5054812;28;20045;-53
2021/07/11 04:56:33;;;;;;;32.30;23.52;;;;;;;18.22;77.06;101477.84;5072194;28;20045;-55
2021/07/11 04:59:00;;;;;;;27.90;22.00;;;;;;;18.23;77.02;101479.50;5072578;28;20041;-56
2021/07/11 05:01:28;;;;;;;30.85;24.42;;;;;;;18.23;76.92;101474.00;5072368;28;20083;-50
2021/07/11 05:03:56;;;;;;;30.23;23.65;;;;;;;18.23;76.94;101479.50;5072650;28;20048;-50
2021/07/11 05:06:23;;;;;;;30.55;23.85;;;;;;;18.24;76.93;101477.56;5072215;28;20044;-51
2021/07/11 05:08:51;;;;;;;32.55;24.38;;;;;;;18.23;76.88;101476.75;5072441;28;20071;-51
2021/07/11 05:11:19;;;;;;;27.80;22.65;;;;;;;18.22;76.94;101477.03;5071143;28;20085;-51
2021/07/11 05:13:47;;;;;;;30.25;22.83;;;;;;;18.20;76.81;101466.31;5072391;28;20041;-51
2021/07/11 05:16:15;;;;;;;29.77;23.17;;;;;;;18.16;77.15;101462.53;5071990;28;20044;-52
2021/07/11 05:18:42;;;;;;;29.75;23.65;;;;;;;18.17;77.19;101460.59;5072323;28;20041;-47
2021/07/11 05:21:10;;;;;;;22.63;18.00;;;;;;;18.20;76.90;101460.78;5072239;28;20110;-49
2021/07/11 05:23:37;;;;;;;26.00;19.70;;;;;;;18.23;76.93;101468.47;5072012;28;20071;-47
2021/07/11 05:26:05;;;;;;;21.05;16.88;;;;;;;18.29;76.76;101461.72;5071408;28;20047;-48
2021/07/11 05:28:33;;;;;;;26.27;19.50;;;;;;;18.35;76.66;101464.38;5072214;28;20395;-51
2021/07/11 05:31:00;;;;;;;27.48;19.05;;;;;;;18.36;76.29;101463.28;5064026;28;20098;-53
2021/07/11 05:33:28;;;;;;;24.67;18.05;;;;;;;18.38;76.34;101463.78;5072038;28;20052;-56
2021/07/11 05:35:55;;;;;;;22.25;16.23;;;;;;;18.40;76.17;101467.88;5072018;28;20043;-51
2021/07/11 05:38:23;;;;;;;24.25;16.90;;;;;;;18.43;75.94;101463.69;5071823;28;20056;-53
2021/07/11 05:40:50;;;;;;;25.67;19.85;;;;;;;18.45;76.04;101469.72;5071478;28;20048;-52
2021/07/11 05:43:18;;;;;;;23.35;18.52;;;;;;;18.47;75.91;101459.19;5052681;28;20040;-53
2021/07/11 05:45:45;;;;;;;24.80;16.13;;;;;;;18.49;75.68;101459.69;5071716;28;20044;-53
2021/07/11 05:48:13;;;;;;;23.20;17.33;;;;;;;18.51;75.72;101452.75;5071659;28;20115;-52
2021/07/11 05:50:40;;;;;;;23.35;17.02;;;;;;;18.52;75.75;101456.34;5071761;28;20044;-56
2021/07/11 05:53:12;;;;;;;24.08;19.30;;;;;;;18.51;75.92;101458.25;5071157;28;20060;-52
2021/07/11 05:55:40;;;;;;;22.83;15.45;;;;;;;18.53;75.50;101466.25;5060523;28;20036;-54
2021/07/11 05:58:08;;;;;;;24.45;19.52;;;;;;;18.56;75.73;101473.91;5071802;28;20049;-53
2021/07/11 06:00:36;;;;;;;23.77;17.17;;;;;;;18.58;75.44;101479.94;5071517;28;20106;-53
2021/07/11 06:03:03;;;;;;;26.15;19.70;;;;;;;18.63;74.80;101476.25;5071248;28;20044;-51
2021/07/11 06:05:31;;;;;;;23.85;17.90;;;;;;;18.70;74.53;101482.19;5071608;28;20040;-52
2021/07/11 06:07:59;;;;;;;24.02;17.70;;;;;;;18.79;73.30;101487.88;5071134;28;20060;-55
2021/07/11 06:10:27;;;;;;;25.92;20.00;;;;;;;18.86;73.78;101491.84;5071054;28;20044;-55
2021/07/11 06:12:54;;;;;;;30.45;20.73;;;;;;;18.79;74.74;101496.97;5070977;28;20446;-53
2021/07/11 06:15:22;;;;;;;31.25;22.17;;;;;;;18.84;74.17;101496.03;5077858;28;20486;-55
2021/07/11 06:17:50;;;;;;;25.15;17.83;;;;;;;18.81;73.87;101494.72;5074126;28;20041;-54
2021/07/11 06:20:17;;;;;;;26.08;19.65;;;;;;;18.81;73.74;101499.38;5074120;28;20040;-54
2021/07/11 06:22:45;;;;;;;23.52;16.05;;;;;;;18.79;73.79;101501.66;5056547;28;20049;-54
2021/07/11 06:25:12;;;;;;;24.55;19.25;;;;;;;18.78;73.71;101505.53;5074634;28;20510;-50
2021/07/11 06:27:41;;;;;;;20.63;15.82;;;;;;;18.86;72.76;101513.13;5074894;28;20040;-50
2021/07/11 06:30:12;;;;;;;27.73;19.13;;;;;;;18.83;73.71;101514.56;5074518;28;20045;-50
2021/07/11 06:32:41;;;;;;;29.50;22.38;;;;;;;18.74;74.81;101521.88;5056845;28;20566;-54
2021/07/11 06:35:10;;;;;;;25.92;19.17;;;;;;;18.77;74.05;101520.47;4371110;28;10000738;-53
2021/07/11 06:37:38;;;;;;;24.30;19.42;;;;;;;18.74;74.23;101513.59;5072240;28;20033;-53
2021/07/11 06:40:07;;;;;;;26.45;18.90;;;;;;;18.75;73.74;101509.69;5072476;28;20029;-52
2021/07/11 06:42:34;;;;;;;24.00;17.70;;;;;;;18.83;73.03;101522.84;5072461;28;20055;-52
2021/07/11 06:45:03;;;;;;;32.40;24.00;;;;;;;18.76;74.37;101518.78;5072306;28;20423;-52
2021/07/11 06:47:30;;;;;;;22.50;15.45;;;;;;;18.77;73.02;101528.75;5072356;28;20051;-52
2021/07/11 06:49:58;;;;;;;30.58;24.08;;;;;;;18.82;73.95;101532.22;5072565;28;20045;-53
2021/07/11 06:52:26;;;;;;;33.00;24.88;;;;;;;18.81;73.47;101535.28;5071943;28;20486;-57
2021/07/11 06:54:53;;;;;;;27.85;21.85;;;;;;;18.74;73.84;101528.22;5072255;28;20036;-51
2021/07/11 06:57:21;;;;;;;30.00;21.50;;;;;;;18.73;73.58;101537.59;5072219;28;20045;-56
2021/07/11 06:59:48;;;;;;;26.67;19.65;;;;;;;18.77;73.24;101526.00;5072180;28;20047;-55
2021/07/11 07:02:16;;;;;;;25.90;17.83;;;;;;;18.80;72.57;101540.00;5072157;28;20045;-52
2021/07/11 07:04:44;;;;;;;36.00;26.25;;;;;;;18.85;73.38;101539.06;5073129;28;20047;-53
2021/07/11 07:07:11;;;;;;;28.98;20.55;;;;;;;18.86;73.10;101540.72;5073898;28;20487;-54
2021/07/11 07:09:39;;;;;;;27.27;18.65;;;;;;;18.90;72.34;101536.22;5074194;28;20063;-57
2021/07/11 07:12:07;;;;;;;32.05;22.80;;;;;;;18.91;72.79;101546.16;5072762;28;20098;-55
2021/07/11 07:14:34;;;;;;;31.35;20.77;;;;;;;18.95;72.40;101549.91;5073698;28;20041;-53
2021/07/11 07:17:02;;;;;;;37.42;27.52;;;;;;;18.92;73.22;101556.06;5074243;28;20032;-53
2021/07/11 07:19:30;;;;;;;36.22;28.35;;;;;;;18.86;73.92;101560.06;5074225;28;20048;-52
2021/07/11 07:21:58;;;;;;;38.38;27.45;;;;;;;18.81;74.13;101560.97;5056152;28;20047;-52
2021/07/11 07:24:25;;;;;;;40.22;28.92;;;;;;;18.81;74.37;101565.66;5074001;28;20045;-53
2021/07/11 07:26:53;;;;;;;36.17;25.45;;;;;;;18.79;74.48;101562.41;5073972;28;20036;-52
2021/07/11 07:29:20;;;;;;;38.17;24.83;;;;;;;18.80;74.55;101566.78;5074296;28;20101;-54
2021/07/11 07:31:48;;;;;;;41.92;31.52;;;;;;;18.78;74.69;101567.09;5073174;28;20119;-55
2021/07/11 07:34:15;;;;;;;39.33;28.23;;;;;;;18.77;74.78;101559.13;5073972;28;20052;-53
2021/07/11 07:36:43;;;;;;;37.20;23.98;;;;;;;18.82;74.15;101573.66;5073278;28;20050;-57
2021/07/11 07:39:10;;;;;;;46.63;34.20;;;;;;;18.77;74.70;101570.19;5073890;28;20509;-56
2021/07/11 07:41:38;;;;;;;39.08;26.27;;;;;;;18.71;74.78;101569.41;5073704;28;20098;-57
2021/07/11 07:44:06;;;;;;;40.08;26.05;;;;;;;18.67;74.30;101563.69;5073680;28;20041;-53
2021/07/11 07:46:33;;;;;;;50.60;36.63;;;;;;;18.54;75.15;101567.22;5073325;28;20045;-55
2021/07/11 07:49:01;;;;;;;46.53;34.00;;;;;;;18.46;75.35;101566.00;5073765;28;20059;-55
2021/07/11 07:51:29;;;;;;;49.28;33.47;;;;;;;18.44;75.73;101561.91;5072962;28;20041;-56
2021/07/11 07:53:56;;;;;;;49.03;33.63;;;;;;;18.45;75.84;101564.38;5073342;28;20037;-54
2021/07/11 07:56:24;;;;;;;48.60;33.88;;;;;;;18.46;75.77;101566.00;5073326;28;20037;-51
2021/07/11 07:58:52;;;;;;;47.80;30.63;;;;;;;18.48;75.75;101569.28;5073263;28;20040;-55
2021/07/11 08:01:19;;;;;;;45.53;29.83;;;;;;;18.55;75.83;101563.38;5073458;28;20090;-54
2021/07/11 08:03:47;;;;;;;47.22;30.48;;;;;;;18.64;74.92;101572.59;5073002;28;20049;-53
2021/07/11 08:06:14;;;;;;;42.75;30.58;;;;;;;18.61;75.32;101570.41;5073208;28;20033;-54
2021/07/11 08:08:42;;;;;;;46.80;29.88;;;;;;;18.59;75.17;101569.06;5072965;28;20048;-56
2021/07/11 08:11:10;;;;;;;44.20;29.98;;;;;;;18.62;75.13;101563.78;5073242;28;20082;-51
2021/07/11 08:13:38;;;;;;;40.40;30.58;;;;;;;18.69;75.26;101564.19;5072852;28;20044;-55
2021/07/11 08:16:07;;;;;;;46.40;33.17;;;;;;;18.67;74.42;101566.44;5069866;28;20041;-53
2021/07/11 08:18:35;;;;;;;48.55;33.88;;;;;;;18.65;74.53;101565.94;5073031;28;20052;-52
2021/07/11 08:21:02;;;;;;;41.92;31.52;;;;;;;18.73;74.74;101565.22;5072519;28;20033;-52
2021/07/11 08:23:30;;;;;;;43.00;30.20;;;;;;;18.81;74.14;101571.19;5073044;28;20052;-51
2021/07/11 08:25:58;;;;;;;22.58;11.93;;;;;;;18.94;72.92;101562.91;5072664;28;20044;-52
2021/07/11 08:28:25;;;;;;;38.42;26.40;;;;;;;19.01;73.22;101565.28;5072939;28;20040;-55
2021/07/11 08:30:53;;;;;;;42.65;32.78;;;;;;;19.05;72.99;101577.34;5072558;28;20048;-52
2021/07/11 08:33:20;;;;;;;41.92;30.40;;;;;;;18.96;71.87;101575.59;5072543;28;20048;-51
2021/07/11 08:35:48;;;;;;;40.10;29.45;;;;;;;18.86;71.89;101573.88;5072391;28;20447;-55
2021/07/11 08:38:16;;;;;;;30.42;21.00;;;;;;;18.89;71.66;101568.53;5072563;28;20037;-52
2021/07/11 08:40:45;;;;;;;33.88;25.98;;;;;;;18.93;70.36;101579.81;5072389;28;20052;-52
2021/07/11 08:43:12;;;;;;;35.70;26.92;;;;;;;18.98;70.96;101570.56;5072507;28;20049;-52
2021/07/11 08:45:40;;;;;;;37.88;28.33;;;;;;;18.96;71.13;101572.84;5072450;28;20051;-52
2021/07/11 08:48:07;;;;;;;41.75;29.33;;;;;;;18.99;71.10;101567.50;5072438;28;20123;-53
2021/07/11 08:50:35;;;;;;;35.25;26.67;;;;;;;19.01;71.15;101562.50;5072257;28;20041;-52
2021/07/11 08:53:03;;;;;;;33.95;26.40;;;;;;;19.01;70.10;101559.75;5054330;28;20067;-52
2021/07/11 08:55:32;;;;;;;35.97;27.23;;;;;;;19.00;70.41;101568.31;5072114;28;20058;-51
2021/07/11 08:58:01;;;;;;;34.33;26.00;;;;;;;18.96;69.69;101573.66;5072474;28;20064;-51
2021/07/11 09:00:32;;;;;;;34.22;26.90;;;;;;;18.96;69.38;101573.66;5072166;28;20049;-51
2021/07/11 09:03:03;;;;;;;33.28;25.42;;;;;;;18.99;69.20;101567.50;5072034;28;20076;-52
2021/07/11 09:05:39;;;;;;;30.85;23.40;;;;;;;19.04;69.63;101574.88;5072252;28;20135;-53
2021/07/11 09:08:08;;;;;;;;;;;;;;;19.08;69.08;101573.16;5072567;28;20041;-52
2021/07/11 09:10:48;;;;;;;26.33;20.95;;;;;;;19.16;68.47;101572.41;5071837;28;19927;-53
2021/07/11 09:13:18;;;;;;;28.15;21.58;;;;;;;19.15;66.75;101579.91;5054554;28;20041;-54
2021/07/11 09:15:50;;;;;;;26.55;21.02;;;;;;;19.16;67.45;101577.94;5071730;28;20419;-54
2021/07/11 09:18:28;;;;;;;25.88;20.42;;;;;;;19.25;67.24;101591.88;5071737;28;20040;-57
2021/07/11 09:20:58;;;;;;;24.48;18.63;;;;;;;19.30;67.04;101581.53;5071912;28;20407;-55
2021/07/11 09:23:30;;;;;;;21.73;15.70;;;;;;;19.36;66.80;101583.06;5058384;28;20135;-55
2021/07/11 09:26:07;;;;;;;21.88;17.45;;;;;;;19.45;67.18;101585.91;5071952;28;20070;-52
2021/07/11 09:28:37;;;;;;;30.88;22.45;;;;;;;19.50;67.62;101577.50;5072007;28;20406;-55
2021/07/11 09:31:10;;;;;;;24.52;18.23;;;;;;;19.52;66.82;101588.25;5071592;28;20049;-56
2021/07/11 09:33:43;;;;;;;25.73;21.63;;;;;;;19.52;66.74;101586.28;5071950;28;20044;-53
2021/07/11 09:36:18;;;;;;;25.27;19.83;;;;;;;19.47;66.58;101588.38;5072033;28;20471;-51
2021/07/11 09:38:51;;;;;;;20.67;15.73;;;;;;;19.51;65.44;101590.19;5072180;28;20045;-52
2021/07/11 09:41:25;;;;;;;22.55;17.27;;;;;;;19.50;65.23;101588.53;5071635;28;20044;-56
2021/07/11 09:43:54;;;;;;;21.20;15.45;;;;;;;19.57;65.39;101588.13;5053895;28;20044;-53
2021/07/11 09:46:23;;;;;;;22.05;17.38;;;;;;;19.67;65.70;101592.63;5070821;28;20452;-52
2021/07/11 09:48:51;;;;;;;20.05;14.10;;;;;;;19.71;64.71;101601.97;5072014;28;20528;-50
2021/07/11 09:51:19;;;;;;;18.98;15.15;;;;;;;19.72;64.34;101590.59;5071905;28;20143;-52
2021/07/11 09:53:49;;;;;;;20.15;16.15;;;;;;;19.75;64.22;101587.22;5074782;28;20036;-52
2021/07/11 09:56:49;;;;;;;21.00;15.27;;;;;;;19.83;64.16;101590.38;5075870;28;20048;-54
2021/07/11 09:59:18;;;;;;;19.92;14.55;;;;;;;19.88;63.45;101584.72;4974634;28;20057;-56
2021/07/11 10:01:46;;;;;;;21.48;15.00;;;;;;;19.90;63.73;101585.22;4973718;28;20051;-55
2021/07/11 10:04:13;;;;;;;18.25;13.48;;;;;;;19.92;63.41;101578.25;4974199;28;20387;-53
2021/07/11 10:06:41;;;;;;;19.73;14.00;;;;;;;19.92;63.36;101578.25;4974031;28;20046;-53
2021/07/11 10:09:10;;;;;;;20.10;14.05;;;;;;;19.92;63.23;101583.78;4973975;28;20078;-52
2021/07/11 10:11:38;;;;;;;17.58;13.77;;;;;;;19.93;63.14;101579.88;4973811;28;20138;-53
2021/07/11 10:14:06;;;;;;;18.02;12.70;;;;;;;19.94;63.12;101572.38;4973682;28;20043;-54
2021/07/11 10:16:36;;;;;;;18.35;13.23;;;;;;;19.93;62.97;101579.06;4973792;28;20055;-54
2021/07/11 10:19:06;;;;;;;14.88;9.23;;;;;;;19.97;63.18;101580.88;4973841;28;20051;-53
2021/07/11 10:21:35;;;;;;;17.45;11.77;;;;;;;20.05;63.31;101571.00;4944387;28;20122;-55
2021/07/11 10:24:04;;;;;;;17.25;13.00;;;;;;;20.13;62.77;101574.97;4973549;28;20069;-55
2021/07/11 10:26:37;;;;;;;11.75;9.10;;;;;;;20.10;61.85;101578.38;4972332;28;20456;-53
2021/07/11 10:29:16;;;;;;;12.77;8.60;;;;;;;20.12;61.88;101576.13;4973504;28;20054;-52
2021/07/11 10:31:49;;;;;;;12.68;8.75;;;;;;;20.15;63.11;101584.59;4973090;28;20050;-53
2021/07/11 10:34:28;;;;;;;15.52;10.32;;;;;;;20.12;62.00;101581.66;4998047;28;20442;-55
2021/07/11 10:36:56;;;;;;;12.88;8.35;;;;;;;20.09;60.49;101587.81;5074660;28;20067;-52
2021/07/11 10:39:34;;;;;;;13.02;9.18;;;;;;;20.08;60.47;101577.88;5074715;28;20049;-52
2021/07/11 10:42:02;;;;;;;14.98;8.70;;;;;;;20.07;60.68;101573.47;5074416;28;20495;-52
2021/07/11 10:44:30;;;;;;;13.05;7.93;;;;;;;20.14;60.43;101579.38;5074036;28;20106;-52
2021/07/11 10:46:59;;;;;;;13.90;8.25;;;;;;;20.17;60.68;101581.50;5074060;28;20051;-52
2021/07/11 10:49:49;;;;;;;8.95;6.10;;;;;;;20.26;61.07;101585.16;5074396;28;20552;-55
2021/07/11 10:52:23;;;;;;;8.65;5.38;;;;;;;20.36;62.74;101576.59;5074273;28;20037;-50
2021/07/11 10:54:53;;;;;;;9.30;6.35;;;;;;;20.45;60.38;101568.34;5056152;28;20495;-52
2021/07/11 10:57:31;;;;;;;10.52;6.88;;;;;;;20.52;60.26;101573.44;5074213;28;20264;-52
2021/07/11 11:00:25;;;;;;;9.48;6.05;;;;;;;20.54;58.56;101565.63;5073425;28;20052;-50
2021/07/11 11:02:54;;;;;;;9.18;6.25;;;;;;;20.51;58.74;101572.59;5072869;28;20074;-55
2021/07/11 11:05:25;;;;;;;8.13;5.80;;;;;;;20.58;58.75;101567.47;5054732;28;20098;-55
2021/07/11 11:08:10;;;;;;;9.80;5.95;;;;;;;20.69;60.16;101576.34;5072955;28;20064;-51
2021/07/11 11:10:40;;;;;;;8.68;4.63;;;;;;;20.79;56.34;101567.75;5072642;28;20036;-52
2021/07/11 11:13:12;;;;;;;10.75;5.38;;;;;;;20.82;58.09;101566.28;5072509;28;20070;-51
2021/07/11 11:15:43;;;;;;;9.35;5.68;;;;;;;20.87;59.46;101559.78;5072347;28;20236;-52
2021/07/11 11:18:22;;;;;;;9.07;5.22;;;;;;;20.84;57.63;101567.59;5040981;28;20048;-58
2021/07/11 11:20:57;;;;;;;7.97;5.00;;;;;;;20.85;56.17;101566.47;5073090;28;20049;-57
2021/07/11 11:23:26;;;;;;;6.43;4.10;;;;;;;20.81;56.42;101573.78;5060056;28;20044;-57
2021/07/11 11:25:54;;;;;;;6.78;4.00;;;;;;;20.79;56.20;101570.50;5055138;28;20048;-57